Terminal Aerodrome Forecast
Issued by NWS

Home | Current Version | Previous Version | Text Only | Print | Product List | Glossary On
Versions: 1 2 3 4 5 6 7 8 9 10 11 12 13 14 15 16
673
FTUS43 KBIS 130525
TAFMOT
TAF
KMOT 130525Z 1306/1406 13007KT P6SM BKN100
     FM131000 13011KT P6SM OVC120
     FM131200 14012KT P6SM -SN SCT030 OVC100
     FM131600 15017KT P6SM -SN SCT015 OVC020
     FM132100 15015KT 4SM -SN OVC010
     FM140000 15013KT 2SM -SN OVC010
     FM140400 18011KT 2SM -SN OVC008=

USA.gov is the U.S. government's official web portal to all federal, state and local government web resources and services.